SLCO2: Lee Creek At Short, OK

                                SHEF ID:       SLCO2     Lee Creek near Short, OK
STATION TYPE: Stream Gauge

PRECIP STAGE RIV-FLOW BAT-LOAD
in ft cfs volt
Ccp-Rev Ccp-Rev Ccp-Rev Ccp-Rev
(America/Chicago)
04/27 00:00 0.00 4.35 540 12.80
04/27 01:00 0.00 4.31 521 12.79
04/27 02:00 0.00 4.27 504 12.77
04/27 03:00 0.00 4.22 484 12.76
04/27 04:00 0.00 4.19 471 12.74
04/27 05:00 0.00 4.15 455 12.73
04/27 06:00 0.00 4.12 444 12.71
04/27 07:00 0.00 4.09 432 12.70
04/27 08:00 0.00 4.06 421 12.68
04/27 09:00 0.00 4.03 410 12.67
04/27 10:00 0.00 4.00 399 12.76
04/27 11:00 0.00 3.98 392 12.86
04/27 12:00 0.00 3.96 385 13.04
04/27 13:00 0.00 3.93 374 13.16
04/27 14:00 0.00 3.92 371 13.64
04/27 15:00 0.00 3.90 364 13.19
04/27 16:00 0.00 3.87 353 13.12
04/27 17:00 0.00 3.86 350 13.08
04/27 18:00 0.00 3.83 340 12.96
04/27 19:00 0.00 3.82 337 12.90
04/27 20:00 0.00 3.80 330 12.86
04/27 21:00 0.00 3.78 324 12.83
04/27 22:00 0.00 3.76 318 12.83
04/27 23:00 0.00 3.74 311 12.82
Data processed at Tue 28Apr2026 04:41 GMT

NOTICE: If you are parsing this page

Please convert to using our Data API. Starting early 2026 we will be migrating to: https://water.usace.army.mil with modern pages rendered in JavaScript. When this migration completes you will no longer be able to scrape this page! CWMSDataAPI (CDA)

Timeseries IDs (TSIDs)

TSIDs used from left to right in the data table
SHOR.Precip-Inc.Total.1Hour.1Hour.Ccp-Rev
SHOR.Stage.Inst.1Hour.0.Ccp-Rev
SHOR.Flow.Inst.1Hour.0.Ccp-Rev
SHOR.Volt-Battery Load.Inst.1Hour.0.Ccp-Rev

                            

All information presented herein is the property of the government of the United States of America and may be revised or deleted at any time without prior notice. Dissemination of this information without the expressed written consent of the Public Affairs Office, Tulsa District U.S. Army Corps of Engineers is strictly prohibited. These data are gathered electronically and, as presented, have NOT undergone any form of quality control. These data are NOT guaranteed to be valid or correct.